createdAt,value
2018-03-20T00:01:04.186Z,42.70
2018-03-20T00:03:36.177Z,43.30
2018-03-20T00:06:07.473Z,43.30
2018-03-20T00:08:38.888Z,43.20
2018-03-20T00:11:10.101Z,43.40
2018-03-20T00:13:41.519Z,43.60
2018-03-20T00:16:12.915Z,43.70
2018-03-20T00:18:44.193Z,43.50
2018-03-20T00:21:15.539Z,43.20
2018-03-20T00:23:46.804Z,43.00
2018-03-20T00:26:18.318Z,43.10
2018-03-20T00:28:49.669Z,42.80
2018-03-20T00:31:20.896Z,42.60
2018-03-20T00:33:52.199Z,42.10
2018-03-20T00:36:23.545Z,42.10
2018-03-20T00:38:54.762Z,42.10
2018-03-20T00:41:26.039Z,42.40
2018-03-20T00:43:57.334Z,42.80
2018-03-20T00:46:28.850Z,43.20
2018-03-20T00:49:00.200Z,43.40
2018-03-20T00:51:31.530Z,43.20
2018-03-20T00:54:02.844Z,43.50
2018-03-20T00:56:34.223Z,43.40
2018-03-20T00:59:06.267Z,43.10
2018-03-20T01:01:37.573Z,43.10
2018-03-20T01:04:08.865Z,43.20
2018-03-20T01:06:40.171Z,43.00
2018-03-20T01:09:11.389Z,43.00
2018-03-20T01:11:42.713Z,43.40
2018-03-20T01:14:14.046Z,44.00
2018-03-20T01:16:45.459Z,43.60
2018-03-20T01:19:16.732Z,43.70
2018-03-20T01:21:48.827Z,44.30
2018-03-20T01:24:20.826Z,44.40
2018-03-20T01:26:52.171Z,44.40
2018-03-20T01:29:23.424Z,44.70
2018-03-20T01:31:55.525Z,44.60
2018-03-20T01:34:26.740Z,44.60
2018-03-20T01:36:58.802Z,44.80
2018-03-20T01:39:30.091Z,44.80
2018-03-20T01:42:01.458Z,44.60
2018-03-20T01:44:32.743Z,44.10
2018-03-20T01:47:03.992Z,43.70
2018-03-20T01:49:35.235Z,43.60
2018-03-20T01:52:06.473Z,44.00
2018-03-20T01:54:37.724Z,44.20
2018-03-20T01:57:08.951Z,43.80
2018-03-20T01:59:40.173Z,44.10
2018-03-20T02:02:11.403Z,45.00
2018-03-20T02:04:43.420Z,45.00
2018-03-20T02:07:14.668Z,44.90
2018-03-20T02:09:45.913Z,45.00
2018-03-20T02:12:17.246Z,45.40
2018-03-20T02:14:48.687Z,45.10
2018-03-20T02:17:19.944Z,45.40
2018-03-20T02:19:51.935Z,45.40
2018-03-20T02:22:23.920Z,45.30
2018-03-20T02:24:55.854Z,45.00
2018-03-20T02:27:27.873Z,45.00
2018-03-20T02:29:59.071Z,44.90
2018-03-20T02:32:31.086Z,44.90
2018-03-20T02:35:02.345Z,44.90
2018-03-20T02:37:34.098Z,45.00
2018-03-20T02:40:05.298Z,45.30
2018-03-20T02:42:36.533Z,45.10
2018-03-20T02:45:07.793Z,44.50
2018-03-20T02:47:39.026Z,44.70
2018-03-20T02:50:10.331Z,45.20
2018-03-20T02:52:41.761Z,44.50
2018-03-20T02:55:13.199Z,44.50
2018-03-20T02:57:44.495Z,45.10
2018-03-20T03:00:15.693Z,45.70
2018-03-20T03:02:46.944Z,45.20
2018-03-20T03:05:18.168Z,44.70
2018-03-20T03:07:49.422Z,45.40
2018-03-20T03:10:20.646Z,46.00
2018-03-20T03:12:52.220Z,46.10
2018-03-20T03:15:23.419Z,46.20
2018-03-20T03:17:54.742Z,46.60
2018-03-20T03:20:25.940Z,46.50
2018-03-20T03:22:57.170Z,46.30
2018-03-20T03:25:29.117Z,45.60
2018-03-20T03:28:01.112Z,45.70
2018-03-20T03:30:32.326Z,45.70
2018-03-20T03:33:03.640Z,45.20
2018-03-20T03:35:34.880Z,45.40
2018-03-20T03:38:06.410Z,45.70
2018-03-20T03:40:37.627Z,45.80
2018-03-20T03:43:08.818Z,45.50
2018-03-20T03:45:40.059Z,46.10
2018-03-20T03:48:11.257Z,45.30
2018-03-20T03:50:42.658Z,45.30
2018-03-20T03:53:13.931Z,45.20
2018-03-20T03:55:45.201Z,45.00
2018-03-20T03:58:16.516Z,45.50
2018-03-20T04:00:47.757Z,45.80
2018-03-20T04:03:18.994Z,45.70
2018-03-20T04:05:50.388Z,46.30
2018-03-20T04:08:21.687Z,45.70
2018-03-20T04:10:53.629Z,45.60
2018-03-20T04:13:24.854Z,45.60
2018-03-20T04:15:56.119Z,45.50
2018-03-20T04:18:27.432Z,45.80
2018-03-20T04:20:59.398Z,45.60
2018-03-20T04:23:30.603Z,45.60
2018-03-20T04:26:01.864Z,45.80
2018-03-20T04:28:33.086Z,45.70
2018-03-20T04:31:04.605Z,46.40
2018-03-20T04:33:35.863Z,46.50
2018-03-20T04:36:07.033Z,46.70
2018-03-20T04:38:38.377Z,46.00
2018-03-20T04:41:09.672Z,45.40
2018-03-20T04:43:40.964Z,45.90
2018-03-20T04:46:13.723Z,45.40
2018-03-20T04:48:45.255Z,45.60
2018-03-20T04:51:16.496Z,45.60
2018-03-20T04:53:48.084Z,45.70
2018-03-20T04:56:19.316Z,46.00
2018-03-20T04:58:50.619Z,45.50
2018-03-20T05:01:21.909Z,45.60
2018-03-20T05:03:53.200Z,45.40
2018-03-20T05:06:24.493Z,45.40
2018-03-20T05:08:55.706Z,45.70
2018-03-20T05:11:27.373Z,45.70
2018-03-20T05:13:58.602Z,45.50
2018-03-20T05:16:30.176Z,44.90
2018-03-20T05:19:21.259Z,44.50
2018-03-20T05:21:55.893Z,44.40
2018-03-20T05:24:27.133Z,44.50
2018-03-20T05:26:58.745Z,44.50
2018-03-20T05:29:31.042Z,44.40
2018-03-20T05:32:02.302Z,44.40
2018-03-20T05:34:33.650Z,44.60
2018-03-20T05:37:04.898Z,44.10
2018-03-20T05:39:36.317Z,43.60
2018-03-20T05:42:08.302Z,43.40
2018-03-20T05:44:39.870Z,43.40
2018-03-20T05:47:26.177Z,43.00
2018-03-20T05:50:03.576Z,42.70
2018-03-20T05:52:34.844Z,42.90
2018-03-20T05:55:06.157Z,42.90
2018-03-20T05:57:37.407Z,43.20
2018-03-20T06:00:08.659Z,43.40
2018-03-20T06:02:39.978Z,43.20
2018-03-20T06:05:11.202Z,42.90
2018-03-20T06:07:42.435Z,42.90
2018-03-20T06:10:13.675Z,42.50
2018-03-20T06:12:46.009Z,42.90
2018-03-20T06:15:17.292Z,42.90
2018-03-20T06:17:48.674Z,43.90
2018-03-20T06:20:20.039Z,45.00
2018-03-20T06:22:51.254Z,46.50
2018-03-20T06:25:22.512Z,47.50
2018-03-20T06:27:53.773Z,48.30
2018-03-20T06:30:25.067Z,48.80
2018-03-20T06:32:56.259Z,50.60
2018-03-20T06:35:27.865Z,52.40
2018-03-20T06:37:59.149Z,54.00
2018-03-20T06:40:30.406Z,54.60
2018-03-20T06:43:01.683Z,54.70
2018-03-20T06:45:33.741Z,55.60
2018-03-20T06:48:04.971Z,55.60
2018-03-20T06:50:36.231Z,56.20
2018-03-20T06:53:08.414Z,56.00
2018-03-20T06:55:40.429Z,57.50
2018-03-20T06:58:11.651Z,57.50
2018-03-20T07:00:42.995Z,57.90
2018-03-20T07:03:14.375Z,57.80
2018-03-20T07:05:45.614Z,58.80
2018-03-20T07:08:16.943Z,59.60
2018-03-20T07:10:48.289Z,59.30
2018-03-20T07:13:19.740Z,58.60
2018-03-20T07:15:51.037Z,59.60
2018-03-20T07:18:22.575Z,60.60
2018-03-20T07:20:54.001Z,61.40
2018-03-20T07:23:25.378Z,63.20
2018-03-20T07:25:57.444Z,65.60
2018-03-20T07:28:28.792Z,64.60
2018-03-20T07:31:00.055Z,65.80
2018-03-20T07:33:32.060Z,68.00
2018-03-20T07:36:03.272Z,67.90
2018-03-20T07:38:34.783Z,68.10
2018-03-20T07:41:06.242Z,68.50
2018-03-20T07:43:37.552Z,69.20
2018-03-20T07:46:08.826Z,68.70
2018-03-20T07:48:40.098Z,68.50
2018-03-20T07:51:11.386Z,68.50
2018-03-20T07:53:42.652Z,68.40
2018-03-20T07:56:13.908Z,67.60
2018-03-20T07:58:45.156Z,66.20
2018-03-20T08:01:16.492Z,67.00
2018-03-20T08:03:47.799Z,68.10
2018-03-20T08:06:19.060Z,68.90
2018-03-20T08:08:51.121Z,68.90
2018-03-20T08:11:22.452Z,68.90
2018-03-20T08:13:53.703Z,70.00
2018-03-20T08:16:24.935Z,69.70
2018-03-20T08:18:56.310Z,72.10
2018-03-20T08:21:27.725Z,72.70
2018-03-20T08:23:59.014Z,72.00
2018-03-20T08:26:30.990Z,71.80
2018-03-20T08:29:02.971Z,72.20
2018-03-20T08:31:34.928Z,71.10
2018-03-20T08:34:06.210Z,71.10
2018-03-20T08:36:37.804Z,71.60
2018-03-20T08:39:09.015Z,71.50
2018-03-20T08:41:40.337Z,73.20
2018-03-20T08:44:11.568Z,72.60
2018-03-20T08:46:42.889Z,71.40
2018-03-20T08:49:14.919Z,71.80
2018-03-20T08:51:46.219Z,71.80
2018-03-20T08:54:18.190Z,71.20
2018-03-20T08:56:49.543Z,71.20
2018-03-20T08:59:20.755Z,71.40
2018-03-20T09:01:52.074Z,71.40
2018-03-20T09:04:23.398Z,71.40
2018-03-20T09:06:54.779Z,70.50
2018-03-20T09:09:26.074Z,69.20
2018-03-20T09:11:57.660Z,68.50
2018-03-20T09:14:29.091Z,69.10
2018-03-20T09:17:00.397Z,69.50
2018-03-20T09:19:32.420Z,70.10
2018-03-20T09:22:03.796Z,70.10
2018-03-20T09:24:35.111Z,70.30
2018-03-20T09:27:06.347Z,69.50
2018-03-20T09:29:37.639Z,70.90
2018-03-20T09:32:09.656Z,70.40
2018-03-20T09:34:41.031Z,70.40
2018-03-20T09:37:13.088Z,71.80
2018-03-20T09:39:44.297Z,71.80
2018-03-20T09:42:15.552Z,72.30
2018-03-20T09:44:46.818Z,71.70
2018-03-20T09:47:18.036Z,70.60
2018-03-20T09:49:49.439Z,70.40
2018-03-20T09:52:20.686Z,71.50
2018-03-20T09:54:52.638Z,71.20
2018-03-20T09:57:23.839Z,71.20
2018-03-20T09:59:55.071Z,70.20
2018-03-20T10:02:26.344Z,71.30
2018-03-20T10:04:57.612Z,70.80
2018-03-20T10:07:28.830Z,70.80
2018-03-20T10:10:00.097Z,70.90
2018-03-20T10:12:32.135Z,68.80
2018-03-20T10:15:03.375Z,68.70
2018-03-20T10:17:34.681Z,68.80
2018-03-20T10:20:07.171Z,68.10
2018-03-20T10:22:39.439Z,68.10
2018-03-20T10:25:10.915Z,68.10
2018-03-20T10:27:42.123Z,68.50
2018-03-20T10:30:13.381Z,68.00
2018-03-20T10:32:44.686Z,68.40
2018-03-20T10:35:16.684Z,68.90
2018-03-20T10:37:47.912Z,68.90
2018-03-20T10:40:19.129Z,69.40
2018-03-20T10:42:51.169Z,68.90
2018-03-20T10:45:22.413Z,68.90
2018-03-20T10:47:54.496Z,69.60
2018-03-20T10:50:25.996Z,68.90
2018-03-20T10:52:57.283Z,68.20
2018-03-20T10:55:28.777Z,68.20
2018-03-20T10:58:00.084Z,69.60
2018-03-20T11:00:37.536Z,69.90
2018-03-20T11:03:08.851Z,69.60
2018-03-20T11:05:40.768Z,69.80
2018-03-20T11:08:12.094Z,69.70
2018-03-20T11:10:43.275Z,69.00
2018-03-20T11:13:15.387Z,69.60
2018-03-20T11:15:46.721Z,69.60
2018-03-20T11:18:18.656Z,70.80
2018-03-20T11:20:49.924Z,70.70
2018-03-20T11:23:21.185Z,71.10
2018-03-20T11:25:52.480Z,70.90
2018-03-20T11:28:24.586Z,70.60
2018-03-20T11:30:55.844Z,69.30
2018-03-20T11:33:27.058Z,70.70
2018-03-20T11:36:00.167Z,70.70
2018-03-20T11:38:31.444Z,70.70
2018-03-20T11:41:02.722Z,71.10
2018-03-20T11:43:33.951Z,71.20
2018-03-20T11:46:05.414Z,70.40
2018-03-20T11:48:36.743Z,69.90
2018-03-20T11:51:08.075Z,71.10
2018-03-20T11:53:42.755Z,70.50
2018-03-20T11:56:14.164Z,70.90
2018-03-20T11:58:46.162Z,70.20
2018-03-20T12:01:18.268Z,70.20
2018-03-20T12:03:49.876Z,70.20
2018-03-20T12:06:21.973Z,70.00
2018-03-20T12:09:06.515Z,68.80
2018-03-20T12:11:37.807Z,68.70
2018-03-20T12:14:09.252Z,68.40
2018-03-20T12:16:40.446Z,67.20
2018-03-20T12:19:12.423Z,66.90
2018-03-20T12:21:43.647Z,67.10
2018-03-20T12:24:15.719Z,68.90
2018-03-20T12:26:47.007Z,68.80
2018-03-20T12:29:18.239Z,67.60
2018-03-20T12:31:49.658Z,67.60
2018-03-20T12:34:21.638Z,67.80
2018-03-20T12:36:52.912Z,67.80
2018-03-20T12:39:24.250Z,66.70
2018-03-20T12:41:55.537Z,67.50
2018-03-20T12:44:27.180Z,66.80
2018-03-20T12:46:58.444Z,66.30
2018-03-20T12:49:30.534Z,65.90
2018-03-20T12:52:03.304Z,66.50
2018-03-20T12:54:35.409Z,66.20
2018-03-20T12:57:06.687Z,66.20
2018-03-20T12:59:37.980Z,66.10
2018-03-20T13:02:09.274Z,66.20
2018-03-20T13:04:41.407Z,65.80
2018-03-20T13:07:13.676Z,65.70
2018-03-20T13:09:45.020Z,65.70
2018-03-20T13:12:16.565Z,65.90
2018-03-20T13:14:47.799Z,65.50
2018-03-20T13:17:19.162Z,66.60
2018-03-20T13:19:50.486Z,65.10
2018-03-20T13:22:23.017Z,66.60
2018-03-20T13:24:54.332Z,66.40
2018-03-20T13:27:25.591Z,66.80
2018-03-20T13:29:56.835Z,66.50
2018-03-20T13:32:28.606Z,65.50
2018-03-20T13:34:59.881Z,66.40
2018-03-20T13:37:31.928Z,66.90
2018-03-20T13:40:03.106Z,66.80
2018-03-20T13:42:34.384Z,67.20
2018-03-20T13:45:05.719Z,67.70
2018-03-20T13:47:36.939Z,67.60
2018-03-20T13:50:08.140Z,67.90
2018-03-20T13:52:39.664Z,68.00
2018-03-20T13:55:10.879Z,67.60
2018-03-20T13:57:42.233Z,68.00
2018-03-20T14:00:13.530Z,68.80
2018-03-20T14:02:44.711Z,69.40
2018-03-20T14:05:16.409Z,69.80
2018-03-20T14:07:47.632Z,69.30
2018-03-20T14:10:20.648Z,68.90
2018-03-20T14:12:51.857Z,68.30
2018-03-20T14:15:23.122Z,67.70
2018-03-20T14:17:54.297Z,67.90
2018-03-20T14:20:26.395Z,67.70
2018-03-20T14:22:57.766Z,67.70
2018-03-20T14:25:29.308Z,67.50
2018-03-20T14:28:00.639Z,67.40
2018-03-20T14:30:31.904Z,67.20
2018-03-20T14:33:03.255Z,67.10
2018-03-20T14:35:34.437Z,66.90
2018-03-20T14:38:06.395Z,67.10
2018-03-20T14:40:37.644Z,67.00
2018-03-20T14:43:08.847Z,67.00
2018-03-20T14:45:40.112Z,67.60
2018-03-20T14:48:12.086Z,65.80
2018-03-20T14:50:43.332Z,65.80
2018-03-20T14:53:15.349Z,65.00
2018-03-20T14:55:46.615Z,65.00
2018-03-20T14:58:22.303Z,64.30
2018-03-20T15:00:53.604Z,64.30
2018-03-20T15:03:25.030Z,64.30
2018-03-20T15:05:56.498Z,63.20
2018-03-20T15:08:27.771Z,64.00
2018-03-20T15:10:59.754Z,62.60
2018-03-20T15:13:30.992Z,62.40
2018-03-20T15:16:03.048Z,61.10
2018-03-20T15:18:34.256Z,61.10
2018-03-20T15:21:05.519Z,60.90
2018-03-20T15:23:36.749Z,60.90
2018-03-20T15:26:08.098Z,60.60
2018-03-20T15:28:39.306Z,59.60
2018-03-20T15:31:10.537Z,59.10
2018-03-20T15:33:41.755Z,57.90
2018-03-20T15:36:12.939Z,58.50
2018-03-20T15:38:44.529Z,56.80
2018-03-20T15:41:15.836Z,56.50
2018-03-20T15:43:47.039Z,56.30
2018-03-20T15:46:18.377Z,55.60
2018-03-20T15:48:49.808Z,55.60
2018-03-20T15:51:21.898Z,55.10
2018-03-20T15:53:53.227Z,55.10
2018-03-20T15:56:24.757Z,54.40
2018-03-20T15:58:56.210Z,53.70
2018-03-20T16:01:27.507Z,54.10
2018-03-20T16:03:58.751Z,53.70
2018-03-20T16:06:30.213Z,53.80
2018-03-20T16:09:01.593Z,54.30
2018-03-20T16:11:32.873Z,55.30
2018-03-20T16:14:04.176Z,55.40
2018-03-20T16:16:35.515Z,55.40
2018-03-20T16:19:06.825Z,54.90
2018-03-20T16:21:38.863Z,54.40
2018-03-20T16:24:10.184Z,54.40
2018-03-20T16:26:41.452Z,52.90
2018-03-20T16:29:12.913Z,52.90
2018-03-20T16:31:45.001Z,53.00
2018-03-20T16:34:16.305Z,53.00
2018-03-20T16:36:47.554Z,53.10
2018-03-20T16:39:19.901Z,54.30
2018-03-20T16:41:51.073Z,54.30
2018-03-20T16:44:23.188Z,54.70
2018-03-20T16:46:55.297Z,54.30
2018-03-20T16:49:27.777Z,54.60
2018-03-20T16:51:58.986Z,54.50
2018-03-20T16:54:30.563Z,54.70
2018-03-20T16:57:01.847Z,55.50
2018-03-20T16:59:33.181Z,56.20
2018-03-20T17:02:04.519Z,56.60
2018-03-20T17:04:35.888Z,56.70
2018-03-20T17:07:15.041Z,57.70
2018-03-20T17:09:46.379Z,57.70
2018-03-20T17:12:17.774Z,57.90
2018-03-20T17:14:49.207Z,57.90
2018-03-20T17:17:20.448Z,57.20
2018-03-20T17:19:51.623Z,56.70
2018-03-20T17:22:23.593Z,56.50
2018-03-20T17:24:54.880Z,55.90
2018-03-20T17:27:26.272Z,55.80
2018-03-20T17:29:57.744Z,55.90
2018-03-20T17:32:29.158Z,55.60
2018-03-20T17:35:01.889Z,55.50
2018-03-20T17:37:33.495Z,55.40
2018-03-20T17:40:04.758Z,55.50
2018-03-20T17:42:36.319Z,55.50
2018-03-20T17:45:08.760Z,56.10
2018-03-20T17:47:40.064Z,56.10
2018-03-20T17:50:11.319Z,56.20
2018-03-20T17:52:42.575Z,56.80
2018-03-20T17:55:13.952Z,56.60
2018-03-20T17:57:45.130Z,56.90
2018-03-20T18:00:16.440Z,56.80
2018-03-20T18:02:47.756Z,57.30
2018-03-20T18:05:19.099Z,57.30
2018-03-20T18:07:50.473Z,57.30
2018-03-20T18:10:21.700Z,57.30
2018-03-20T18:12:52.924Z,57.30
2018-03-20T18:15:24.200Z,57.30
2018-03-20T18:17:55.395Z,57.00
2018-03-20T18:20:26.776Z,57.10
2018-03-20T18:22:58.100Z,57.30
2018-03-20T18:25:29.691Z,57.30
2018-03-20T18:28:00.940Z,57.30
2018-03-20T18:30:33.065Z,57.60
2018-03-20T18:33:04.277Z,58.10
2018-03-20T18:35:35.558Z,58.50
2018-03-20T18:38:06.808Z,58.00
2018-03-20T18:40:38.045Z,58.60
2018-03-20T18:43:09.289Z,59.10
2018-03-20T18:45:40.508Z,58.70
2018-03-20T18:48:11.928Z,58.90
2018-03-20T18:50:43.943Z,58.80
2018-03-20T18:53:15.256Z,58.60
2018-03-20T18:55:46.712Z,58.80
2018-03-20T18:58:18.673Z,59.30
2018-03-20T19:00:50.885Z,59.70
2018-03-20T19:03:22.329Z,59.70
2018-03-20T19:05:53.670Z,59.70
2018-03-20T19:08:25.089Z,60.10
2018-03-20T19:10:56.335Z,59.60
2018-03-20T19:13:27.647Z,59.90
2018-03-20T19:15:58.875Z,59.80
2018-03-20T19:18:30.362Z,60.20
2018-03-20T19:21:01.671Z,60.30
2018-03-20T19:23:33.095Z,60.10
2018-03-20T19:26:04.373Z,60.90
2018-03-20T19:28:35.773Z,60.20
2018-03-20T19:31:07.067Z,60.40
2018-03-20T19:33:38.295Z,60.60
2018-03-20T19:36:09.586Z,60.70
2018-03-20T19:38:41.641Z,60.40
2018-03-20T19:41:12.897Z,60.40
2018-03-20T19:43:44.892Z,61.30
2018-03-20T19:46:16.239Z,61.20
2018-03-20T19:48:47.584Z,61.70
2018-03-20T19:51:18.830Z,62.00
2018-03-20T19:53:50.038Z,62.00
2018-03-20T19:56:21.428Z,62.40
2018-03-20T19:58:52.813Z,62.00
2018-03-20T20:01:24.025Z,61.90
2018-03-20T20:03:55.259Z,62.70
2018-03-20T20:06:26.510Z,62.00
2018-03-20T20:08:57.915Z,62.00
2018-03-20T20:11:29.970Z,62.00
2018-03-20T20:14:01.373Z,62.50
2018-03-20T20:16:32.760Z,62.40
2018-03-20T20:19:04.856Z,62.50
2018-03-20T20:21:36.180Z,62.50
2018-03-20T20:24:08.305Z,62.50
2018-03-20T20:26:39.621Z,62.50
2018-03-20T20:29:11.548Z,62.80
2018-03-20T20:31:42.745Z,63.10
2018-03-20T20:34:13.959Z,62.70
2018-03-20T20:36:46.296Z,63.40
2018-03-20T20:39:17.745Z,62.60
2018-03-20T20:41:48.955Z,62.70
2018-03-20T20:44:20.196Z,62.70
2018-03-20T20:46:51.443Z,62.80
2018-03-20T20:49:22.682Z,63.20
2018-03-20T20:51:53.874Z,63.10
2018-03-20T20:54:25.306Z,63.10
2018-03-20T20:56:56.724Z,62.70
2018-03-20T20:59:28.184Z,62.60
2018-03-20T21:01:59.489Z,62.30
2018-03-20T21:04:31.505Z,62.60
2018-03-20T21:07:03.533Z,62.90
2018-03-20T21:09:34.823Z,62.70
2018-03-20T21:12:06.101Z,63.20
2018-03-20T21:14:37.562Z,63.60
2018-03-20T21:17:09.787Z,63.50
2018-03-20T21:19:41.096Z,63.50
2018-03-20T21:22:12.301Z,63.30
2018-03-20T21:24:44.284Z,63.40
2018-03-20T21:27:15.578Z,63.40
2018-03-20T21:29:46.834Z,63.30
2018-03-20T21:32:18.037Z,63.20
2018-03-20T21:34:49.287Z,63.50
2018-03-20T21:37:20.467Z,63.60
2018-03-20T21:39:51.759Z,63.70
2018-03-20T21:42:22.981Z,64.00
2018-03-20T21:44:54.928Z,64.00
2018-03-20T21:47:26.352Z,64.00
2018-03-20T21:49:57.635Z,65.00
2018-03-20T21:52:28.866Z,64.10
2018-03-20T21:55:01.005Z,63.60
2018-03-20T21:57:32.241Z,63.60
2018-03-20T22:00:04.232Z,64.00
2018-03-20T22:02:35.640Z,64.00
2018-03-20T22:05:07.139Z,63.80
2018-03-20T22:07:38.440Z,64.00
2018-03-20T22:10:09.773Z,64.00
2018-03-20T22:12:41.192Z,63.80
2018-03-20T22:17:55.505Z,63.90
2018-03-20T22:20:27.251Z,63.80
2018-03-20T22:22:58.503Z,64.30
2018-03-20T22:25:29.785Z,64.20
2018-03-20T22:28:01.042Z,64.70
2018-03-20T22:30:32.330Z,64.00
2018-03-20T22:33:03.515Z,64.80
2018-03-20T22:35:34.752Z,64.60
2018-03-20T22:38:05.983Z,64.60
2018-03-20T22:40:37.253Z,64.60
2018-03-20T22:43:09.186Z,64.30
2018-03-20T22:45:40.571Z,64.30
2018-03-20T22:48:11.872Z,64.10
2018-03-20T22:50:43.134Z,63.90
2018-03-20T22:53:17.091Z,64.30
2018-03-20T22:55:48.590Z,64.50
2018-03-20T22:58:19.830Z,65.10
2018-03-20T23:00:51.386Z,65.20
2018-03-20T23:03:22.559Z,64.40
2018-03-20T23:05:54.724Z,65.30
2018-03-20T23:08:25.966Z,65.00
2018-03-20T23:10:58.008Z,65.00
2018-03-20T23:13:29.678Z,65.00
2018-03-20T23:16:27.754Z,64.60
2018-03-20T23:18:59.767Z,64.80
2018-03-20T23:21:30.984Z,64.80
2018-03-20T23:24:02.354Z,64.20
2018-03-20T23:26:33.560Z,64.10
2018-03-20T23:29:05.819Z,65.40
2018-03-20T23:31:37.874Z,65.50
2018-03-20T23:34:09.052Z,65.60
2018-03-20T23:36:40.295Z,66.10
2018-03-20T23:39:11.487Z,66.40
2018-03-20T23:41:42.768Z,67.10
2018-03-20T23:44:14.027Z,66.80
2018-03-20T23:46:45.619Z,66.50
2018-03-20T23:49:16.807Z,66.60
2018-03-20T23:51:49.031Z,66.70
2018-03-20T23:54:20.205Z,66.70
2018-03-20T23:56:51.865Z,66.20
2018-03-20T23:59:23.189Z,66.50
